createdAt,value
2023-03-12T00:01:35.756Z,0
2023-03-12T00:06:43.572Z,0
2023-03-12T00:16:59.233Z,0
2023-03-12T00:22:07.068Z,0
2023-03-12T00:27:14.888Z,0
2023-03-12T00:32:22.714Z,0
2023-03-12T00:37:30.553Z,0
2023-03-12T00:42:38.360Z,0
2023-03-12T00:47:46.188Z,0
2023-03-12T00:52:54.025Z,0
2023-03-12T00:58:01.845Z,0
2023-03-12T01:03:09.689Z,0
2023-03-12T01:08:17.520Z,0
2023-03-12T01:13:23.725Z,0
2023-03-12T01:18:29.819Z,0
2023-03-12T01:23:35.908Z,0
2023-03-12T01:28:41.994Z,0
2023-03-12T01:33:48.123Z,0
2023-03-12T01:38:54.184Z,0
2023-03-12T01:44:00.299Z,0
2023-03-12T01:49:06.356Z,0
2023-03-12T01:54:12.435Z,0
2023-03-12T01:59:18.604Z,0
2023-03-12T02:04:24.623Z,0
2023-03-12T02:09:30.737Z,0
2023-03-12T02:14:36.821Z,0
2023-03-12T02:19:42.879Z,0
2023-03-12T02:24:48.988Z,0
2023-03-12T02:29:55.095Z,0
2023-03-12T02:35:01.147Z,0
2023-03-12T02:40:07.227Z,0
2023-03-12T02:45:13.321Z,0
2023-03-12T02:50:19.425Z,0
2023-03-12T02:55:25.490Z,0
2023-03-12T03:00:31.585Z,0
2023-03-12T03:05:37.688Z,0
2023-03-12T03:10:43.765Z,0
2023-03-12T03:15:49.842Z,0
2023-03-12T03:20:56.012Z,0
2023-03-12T03:26:02.196Z,0
2023-03-12T03:31:08.330Z,0
2023-03-12T03:36:14.450Z,0
2023-03-12T03:41:20.614Z,0
2023-03-12T03:46:26.761Z,0
2023-03-12T03:51:32.908Z,0
2023-03-12T03:56:39.059Z,0
2023-03-12T04:01:45.218Z,0
2023-03-12T04:06:51.358Z,0
2023-03-12T04:11:57.511Z,0
2023-03-12T04:17:03.672Z,0
2023-03-12T04:22:09.812Z,0
2023-03-12T04:27:16.087Z,0
2023-03-12T04:32:22.344Z,0
2023-03-12T04:37:28.626Z,0
2023-03-12T04:42:34.870Z,0
2023-03-12T04:47:41.136Z,0
2023-03-12T04:52:47.401Z,0
2023-03-12T04:57:53.673Z,0
2023-03-12T05:02:59.930Z,0
2023-03-12T05:08:06.189Z,0
2023-03-12T05:13:12.466Z,0
2023-03-12T05:18:18.772Z,0
2023-03-12T05:23:25.002Z,0
2023-03-12T05:28:31.256Z,8
2023-03-12T05:33:37.725Z,8
2023-03-12T05:38:44.192Z,16
2023-03-12T05:43:50.662Z,16
2023-03-12T05:48:57.217Z,20
2023-03-12T05:54:03.595Z,24
2023-03-12T05:59:10.078Z,32
2023-03-12T06:04:16.541Z,32
2023-03-12T06:09:23.011Z,40
2023-03-12T06:14:29.489Z,40
2023-03-12T06:19:35.981Z,44
2023-03-12T06:24:42.406Z,48
2023-03-12T06:29:48.903Z,48
2023-03-12T06:34:55.351Z,52
2023-03-12T06:40:02.366Z,60
2023-03-12T06:45:09.374Z,68
2023-03-12T06:50:16.400Z,64
2023-03-12T06:55:23.376Z,60
2023-03-12T07:00:30.382Z,64
2023-03-12T07:05:37.400Z,80
2023-03-12T07:10:44.390Z,80
2023-03-12T07:15:51.400Z,84
2023-03-12T07:20:58.428Z,80
2023-03-12T07:26:05.405Z,88
2023-03-12T07:31:12.413Z,84
2023-03-12T07:36:19.409Z,84
2023-03-12T07:41:26.569Z,96
2023-03-12T07:46:34.267Z,96
2023-03-12T07:51:42.095Z,96
2023-03-12T07:56:50.053Z,72
2023-03-12T08:01:57.916Z,104
2023-03-12T08:07:05.594Z,120
2023-03-12T08:12:13.388Z,112
2023-03-12T08:17:21.215Z,128
2023-03-12T08:22:29.044Z,132
2023-03-12T08:27:36.867Z,124
2023-03-12T08:32:44.715Z,164
2023-03-12T08:37:52.541Z,184
2023-03-12T08:43:00.421Z,180
2023-03-12T08:48:08.193Z,216
2023-03-12T08:53:16.011Z,220
2023-03-12T08:58:23.869Z,164
2023-03-12T09:03:31.713Z,140
2023-03-12T09:08:39.492Z,156
2023-03-12T09:13:47.321Z,168
2023-03-12T09:18:55.166Z,156
2023-03-12T09:24:02.972Z,148
2023-03-12T09:29:10.801Z,232
2023-03-12T09:34:18.642Z,200
2023-03-12T09:39:26.446Z,172
2023-03-12T09:44:34.362Z,152
2023-03-12T09:49:42.113Z,180
2023-03-12T09:54:49.930Z,212
2023-03-12T09:59:57.795Z,240
2023-03-12T10:05:05.620Z,232
2023-03-12T10:10:13.437Z,284
2023-03-12T10:15:21.253Z,300
2023-03-12T10:20:29.070Z,308
2023-03-12T10:25:36.898Z,332
2023-03-12T10:30:44.729Z,328
2023-03-12T10:35:52.564Z,304
2023-03-12T10:41:00.385Z,300
2023-03-12T10:46:08.214Z,272
2023-03-12T10:51:16.161Z,232
2023-03-12T10:56:23.903Z,280
2023-03-12T11:01:31.705Z,432
2023-03-12T11:06:39.575Z,336
2023-03-12T11:11:47.347Z,424
2023-03-12T11:16:55.252Z,348
2023-03-12T11:22:01.602Z,324
2023-03-12T11:27:07.738Z,364
2023-03-12T11:32:13.745Z,364
2023-03-12T11:37:19.911Z,324
2023-03-12T11:42:25.972Z,340
2023-03-12T11:47:32.036Z,332
2023-03-12T11:52:38.099Z,352
2023-03-12T11:57:44.201Z,388
2023-03-12T12:02:50.383Z,424
2023-03-12T12:07:56.386Z,364
2023-03-12T12:13:02.459Z,308
2023-03-12T12:18:08.610Z,324
2023-03-12T12:23:14.639Z,412
2023-03-12T12:28:20.746Z,328
2023-03-12T12:33:26.820Z,340
2023-03-12T12:38:32.907Z,304
2023-03-12T12:43:38.998Z,344
2023-03-12T12:48:45.090Z,368
2023-03-12T12:53:51.166Z,384
2023-03-12T12:58:57.267Z,256
2023-03-12T13:04:03.424Z,224
2023-03-12T13:09:09.437Z,236
2023-03-12T13:14:15.535Z,272
2023-03-12T13:19:21.615Z,204
2023-03-12T13:24:27.726Z,180
2023-03-12T13:29:33.875Z,156
2023-03-12T13:34:40.011Z,152
2023-03-12T13:39:46.220Z,168
2023-03-12T13:44:52.320Z,156
2023-03-12T13:49:58.467Z,184
2023-03-12T13:55:04.616Z,128
2023-03-12T14:00:10.893Z,156
2023-03-12T14:05:16.918Z,188
2023-03-12T14:10:23.069Z,316
2023-03-12T14:15:29.316Z,216
2023-03-12T14:20:35.370Z,160
2023-03-12T14:25:41.540Z,128
2023-03-12T14:30:47.695Z,136
2023-03-12T14:35:53.931Z,92
2023-03-12T14:41:00.202Z,72
2023-03-12T14:46:06.461Z,72
2023-03-12T14:51:12.792Z,120
2023-03-12T14:56:19.012Z,96
2023-03-12T15:01:25.265Z,112
2023-03-12T15:06:31.525Z,112
2023-03-12T15:11:37.785Z,88
2023-03-12T15:16:44.036Z,92
2023-03-12T15:21:50.309Z,68
2023-03-12T15:26:56.566Z,72
2023-03-12T15:32:02.863Z,56
2023-03-12T15:37:09.094Z,44
2023-03-12T15:42:15.571Z,36
2023-03-12T15:47:21.351Z,44
2023-03-12T15:52:27.816Z,56
2023-03-12T15:57:34.283Z,44
2023-03-12T16:02:40.759Z,36
2023-03-12T16:07:47.227Z,32
2023-03-12T16:12:53.703Z,40
2023-03-12T16:18:00.166Z,44
2023-03-12T16:23:06.639Z,36
2023-03-12T16:28:13.109Z,20
2023-03-12T16:33:19.678Z,8
2023-03-12T16:38:26.108Z,16
2023-03-12T16:43:32.511Z,8
2023-03-12T16:48:39.020Z,12
2023-03-12T16:53:45.560Z,4
2023-03-12T16:58:51.984Z,4
2023-03-12T17:03:58.393Z,0
2023-03-12T17:09:04.951Z,0
2023-03-12T17:14:11.321Z,0
2023-03-12T17:19:17.835Z,0
2023-03-12T17:24:24.272Z,0
2023-03-12T17:29:30.774Z,0
2023-03-12T17:34:37.299Z,0
2023-03-12T17:39:43.764Z,0
2023-03-12T17:44:50.216Z,0
2023-03-12T17:49:56.622Z,0
2023-03-12T17:55:03.635Z,0
2023-03-12T18:00:10.685Z,0
2023-03-12T18:05:17.869Z,0
2023-03-12T18:10:24.656Z,0
2023-03-12T18:15:31.700Z,0
2023-03-12T18:20:38.688Z,0
2023-03-12T18:25:45.653Z,0
2023-03-12T18:30:52.656Z,0
2023-03-12T18:35:59.683Z,0
2023-03-12T18:41:06.682Z,0
2023-03-12T18:46:13.672Z,0
2023-03-12T18:51:20.681Z,0
2023-03-12T18:56:27.684Z,0
2023-03-12T19:01:35.522Z,0
2023-03-12T19:06:43.346Z,0
2023-03-12T19:11:51.175Z,0
2023-03-12T19:16:59.053Z,0
2023-03-12T19:22:06.941Z,0
2023-03-12T19:27:14.762Z,0
2023-03-12T19:32:22.495Z,0
2023-03-12T19:37:30.328Z,0
2023-03-12T19:42:38.273Z,0
2023-03-12T19:47:46.156Z,0
2023-03-12T19:52:53.800Z,0
2023-03-12T19:58:01.627Z,0
2023-03-12T20:03:09.641Z,0
2023-03-12T20:08:38.726Z,0
2023-03-12T20:13:46.597Z,0
2023-03-12T20:18:54.438Z,0
2023-03-12T20:24:02.203Z,0
2023-03-12T20:29:10.029Z,0
2023-03-12T20:34:17.931Z,0
2023-03-12T20:39:25.853Z,0
2023-03-12T20:44:33.560Z,0
2023-03-12T20:49:41.479Z,0
2023-03-12T20:54:49.194Z,0
2023-03-12T21:05:04.855Z,0
2023-03-12T21:10:11.055Z,0
2023-03-12T21:15:17.164Z,0
2023-03-12T21:20:22.327Z,0
2023-03-12T21:25:28.345Z,0
2023-03-12T21:30:34.604Z,0
2023-03-12T21:35:40.646Z,0
2023-03-12T21:40:46.724Z,0
2023-03-12T21:45:52.709Z,0
2023-03-12T21:50:58.779Z,0
2023-03-12T21:56:04.880Z,0
2023-03-12T22:01:11.003Z,0
2023-03-12T22:06:17.120Z,0
2023-03-12T22:11:23.147Z,0
2023-03-12T22:16:29.213Z,0
2023-03-12T22:21:35.361Z,0
2023-03-12T22:26:41.442Z,0
2023-03-12T22:31:47.487Z,0
2023-03-12T22:36:53.589Z,0
2023-03-12T22:41:59.662Z,0
2023-03-12T22:47:05.784Z,0
2023-03-12T22:52:11.870Z,0
2023-03-12T22:57:17.925Z,0
2023-03-12T23:02:24.084Z,0
2023-03-12T23:07:30.170Z,0
2023-03-12T23:12:36.270Z,0
2023-03-12T23:17:42.274Z,0
2023-03-12T23:22:48.362Z,0
2023-03-12T23:27:54.465Z,0
2023-03-12T23:33:00.544Z,0
2023-03-12T23:38:06.656Z,0
2023-03-12T23:43:12.722Z,0
2023-03-12T23:48:18.824Z,0
2023-03-12T23:53:24.905Z,0
2023-03-12T23:58:31.018Z,0
